• pl
  • eng

Awiacja
NEWS
last updated: 12.09.2019 14:49<\/div>
Dear users,
We would like to inform you that from September 2nd a test form of the GAFOR forecast is available on our webpage. Please send your comments and suggestions to gafor@imgw.pl that will contribute to product development.
TAF FT 16:30 10.07.2020
  • WIND
  • SIGNIFICANT EURO
  • SIGNIFICANT
  • SIGMET
  • AIRMET
  • TAF FC
  • TAF FT
  • METAR GG30
  • METAR GG00


TAF EPBY 101130Z 1012/1112 VRB03KT 9999 -RA BKN040
BECMG 1012/1014 19010KT
PROB40 TEMPO 1013/1021 4000 SHRA BKN012 BKN020CB
PROB30 TEMPO 1014/1021 VRB15G26KT 2000 TSRA BKN009 BKN014CB
BECMG 1018/1021 27012KT
TEMPO 1023/1105 BKN008=

TAF EPGD 101130Z 1012/1112 21006KT 9999 BKN025
TEMPO 1012/1019 3500 SHRA BKN010 BKN020CB
BECMG 1021/1024 27014KT
TEMPO 1021/1103 29018G32KT
PROB40 1102/1106 BKN007=

TAF EPKK 101430Z 1015/1115 22013KT CAVOK
TEMPO 1015/1017 22016G26KT
BECMG 1017/1019 VRB02KT
BECMG 1106/1109 36010KT
TEMPO 1106/1115 SHRA BKN020CB
PROB40 TEMPO 1109/1115 VRB15G35KT 3000 TSRAGR BKN014CB=

TAF EPKT 101130Z 1012/1112 22014KT CAVOK
TEMPO 1012/1016 22017G27KT
PROB30 TEMPO 1019/1024 VRB15G35KT 3000 TSRA BKN020CB
BECMG 1021/1024 36008KT
BECMG 1100/1103 BKN014
TEMPO 1103/1112 4000 SHRA BKN009 BKN014CB=

TAF AMD EPLL 101303Z 1013/1112 22010KT CAVOK
TEMPO 1013/1016 VRB15G30KT 4000 TSRA BKN040CB
TEMPO 1016/1023 SHRA BKN040CB
PROB40 TEMPO 1016/1024 VRB15G30KT 3000 TSRA SCT010 BKN014CB
BECMG 1018/1021 28010KT
TEMPO 1023/1112 4000 SHRA BKN007 BKN020CB
BECMG 1101/1104 34006KT=

TAF EPMO 101130Z 1012/1112 22010KT CAVOK
TEMPO 1012/1017 SCT045CB
TEMPO 1016/1024 SHRA BKN040CB
PROB40 TEMPO 1016/1024 VRB15G30KT 3000 TSRA SCT010 BKN014CB
BECMG 1021/1024 29010KT
TEMPO 1100/1106 SHRA BKN008 BKN020CB=

TAF EPPO 101130Z 1012/1112 16008KT 9999 SCT030
TEMPO 1012/1015 19016G26KT SHRA BKN030CB
PROB40 TEMPO 1013/1019 VRB20G36KT 2500 TSRA BKN014CB
BECMG 1014/1016 27013KT
TEMPO 1015/1023 27016G26KT SHRA SCT007 BKN025CB
TEMPO 1022/1106 BKN009=

TAF EPRZ 101130Z 1012/1112 21014KT CAVOK
TEMPO 1012/1016 21017G27KT
BECMG 1102/1105 36006KT=

TAF EPSC 101130Z 1012/1112 15010KT 9999 BKN007 BKN012
TEMPO 1012/1021 -SHRA BKN017CB
BECMG 1013/1016 21012KT BKN025
PROB40 TEMPO 1014/1017 22018G31KT 3000 TSRA
BECMG 1016/1019 30015KT
PROB40 TEMPO 1017/1021 30017G30KT
BECMG 1022/1024 28005KT
PROB40 1100/1105 BKN005=

TAF EPWA 101430Z 1015/1115 19008KT CAVOK
TEMPO 1015/1018 VRB15G30KT 4000 TSRA BKN040CB
TEMPO 1018/1024 SHRA BKN030CB
PROB40 TEMPO 1018/1024 VRB15G30KT 3000 TSRA
BECMG 1021/1024 27010KT
BECMG 1100/1103 33007KT
TEMPO 1100/1106 SHRA BKN007 BKN014CB
TEMPO 1106/1115 -RA BKN014=

TAF EPWR 101430Z 1015/1115 21010KT 9999 SCT045
TEMPO 1015/1017 22016G26KT SHRA SCT040CB
PROB40 TEMPO 1015/1019 VRB20G36KT 2000 TSRA SCT008 BKN014CB
BECMG 1016/1019 29011KT
TEMPO 1017/1102 29016G26KT SHRA BKN030CB
BECMG 1102/1105 35006KT
TEMPO 1102/1110 4000 RA BR BKN009 BKN014=
Awiacja.imgw.pl jest pogodowym serwisem informacyjnym
Instytutu Meteorologii i Gospodarki Wodnej Państwowego Instytutu Badawczego.
Copyright IMGW PIB 2009-2019© Wszelkie prawa zastrzeżone.